sensor_id;sensor_type;location;lat;lon;timestamp;pressure;altitude;pressure_sealevel;temperature;humidity
48624;BME280;75490;45.802;16.114;2024-03-17T00:01:12;64629.06;;;7.91;100.00
48624;BME280;75490;45.802;16.114;2024-03-17T00:03:39;64632.81;;;7.92;100.00
48624;BME280;75490;45.802;16.114;2024-03-17T00:06:06;64641.38;;;7.95;100.00
48624;BME280;75490;45.802;16.114;2024-03-17T00:08:33;64638.16;;;7.95;100.00
48624;BME280;75490;45.802;16.114;2024-03-17T00:11:00;64633.88;;;7.93;100.00
48624;BME280;75490;45.802;16.114;2024-03-17T00:13:27;64644.63;;;8.01;100.00
48624;BME280;75490;45.802;16.114;2024-03-17T00:15:53;64652.13;;;8.05;100.00
48624;BME280;75490;45.802;16.114;2024-03-17T00:18:20;64654.25;;;8.02;100.00
48624;BME280;75490;45.802;16.114;2024-03-17T00:20:47;64646.78;;;8.05;100.00
48624;BME280;75490;45.802;16.114;2024-03-17T00:23:14;64640.88;;;8.00;100.00
48624;BME280;75490;45.802;16.114;2024-03-17T00:25:41;64648.91;;;8.02;100.00
48624;BME280;75490;45.802;16.114;2024-03-17T00:28:08;64654.81;;;8.08;100.00
48624;BME280;75490;45.802;16.114;2024-03-17T00:30:35;64656.41;;;8.09;100.00
48624;BME280;75490;45.802;16.114;2024-03-17T00:33:03;64652.66;;;8.08;100.00
48624;BME280;75490;45.802;16.114;2024-03-17T00:35:30;64655.38;;;8.13;100.00
48624;BME280;75490;45.802;16.114;2024-03-17T00:37:58;64655.91;;;8.11;100.00
48624;BME280;75490;45.802;16.114;2024-03-17T00:40:25;64652.66;;;8.08;100.00
48624;BME280;75490;45.802;16.114;2024-03-17T00:42:51;64655.34;;;8.08;100.00
48624;BME280;75490;45.802;16.114;2024-03-17T00:45:20;64659.63;;;8.12;100.00
48624;BME280;75490;45.802;16.114;2024-03-17T00:47:47;64667.13;;;8.14;100.00
48624;BME280;75490;45.802;16.114;2024-03-17T00:50:14;64658.59;;;8.16;100.00
48624;BME280;75490;45.802;16.114;2024-03-17T00:52:40;64657.00;;;8.15;100.00
48624;BME280;75490;45.802;16.114;2024-03-17T00:55:07;64661.78;;;8.14;100.00
48624;BME280;75490;45.802;16.114;2024-03-17T00:57:36;64655.38;;;8.13;100.00
48624;BME280;75490;45.802;16.114;2024-03-17T01:00:04;64662.88;;;8.18;100.00
48624;BME280;75490;45.802;16.114;2024-03-17T01:02:33;64665.03;;;8.17;100.00
48624;BME280;75490;45.802;16.114;2024-03-17T01:04:59;64662.88;;;8.15;100.00
48624;BME280;75490;45.802;16.114;2024-03-17T01:07:26;64666.63;;;8.19;100.00
48624;BME280;75490;45.802;16.114;2024-03-17T01:09:53;64668.25;;;8.23;100.00
48624;BME280;75490;45.802;16.114;2024-03-17T01:12:21;64670.38;;;8.23;100.00
48624;BME280;75490;45.802;16.114;2024-03-17T01:14:48;64656.44;;;8.14;100.00
48624;BME280;75490;45.802;16.114;2024-03-17T01:17:15;64670.91;;;8.20;100.00
48624;BME280;75490;45.802;16.114;2024-03-17T01:19:42;64671.97;;;8.19;100.00
48624;BME280;75490;45.802;16.114;2024-03-17T01:22:09;64662.88;;;8.15;100.00
48624;BME280;75490;45.802;16.114;2024-03-17T01:24:35;64661.25;;;8.14;100.00
48624;BME280;75490;45.802;16.114;2024-03-17T01:27:03;64655.91;;;8.11;100.00
48624;BME280;75490;45.802;16.114;2024-03-17T01:29:30;64653.72;;;8.07;100.00
48624;BME280;75490;45.802;16.114;2024-03-17T01:31:57;64646.22;;;8.02;100.00
48624;BME280;75490;45.802;16.114;2024-03-17T01:34:24;64638.16;;;7.92;100.00
48624;BME280;75490;45.802;16.114;2024-03-17T01:36:50;64611.28;;;7.67;100.00
48624;BME280;75490;45.802;16.114;2024-03-17T01:39:17;64601.09;;;7.57;100.00
48624;BME280;75490;45.802;16.114;2024-03-17T01:41:45;64587.13;;;7.44;100.00
48624;BME280;75490;45.802;16.114;2024-03-17T01:44:22;64581.75;;;7.36;100.00
48624;BME280;75490;45.802;16.114;2024-03-17T01:46:50;64580.19;;;7.37;100.00
48624;BME280;75490;45.802;16.114;2024-03-17T01:49:17;64569.41;;;7.27;100.00
48624;BME280;75490;45.802;16.114;2024-03-17T01:51:50;64575.88;;;7.33;100.00
48624;BME280;75490;45.802;16.114;2024-03-17T01:54:17;64565.69;;;7.24;100.00
48624;BME280;75490;45.802;16.114;2024-03-17T01:56:45;64557.09;;;7.16;100.00
48624;BME280;75490;45.802;16.114;2024-03-17T01:59:12;64554.41;;;7.13;100.00
48624;BME280;75490;45.802;16.114;2024-03-17T02:01:40;64548.53;;;7.10;100.00
48624;BME280;75490;45.802;16.114;2024-03-17T02:04:07;64552.25;;;7.11;100.00
48624;BME280;75490;45.802;16.114;2024-03-17T02:06:34;64544.75;;;7.04;100.00
48624;BME280;75490;45.802;16.114;2024-03-17T02:09:01;64526.53;;;6.92;100.00
48624;BME280;75490;45.802;16.114;2024-03-17T02:11:31;64537.25;;;6.97;100.00
48624;BME280;75490;45.802;16.114;2024-03-17T02:13:59;64530.81;;;6.93;100.00
48624;BME280;75490;45.802;16.114;2024-03-17T02:16:26;64534.00;;;6.94;100.00
48624;BME280;75490;45.802;16.114;2024-03-17T02:18:57;64533.47;;;6.93;100.00
48624;BME280;75490;45.802;16.114;2024-03-17T02:21:25;64529.72;;;6.90;100.00
48624;BME280;75490;45.802;16.114;2024-03-17T02:23:54;64519.53;;;6.85;100.00
48624;BME280;75490;45.802;16.114;2024-03-17T02:26:22;64509.34;;;6.75;100.00
48624;BME280;75490;45.802;16.114;2024-03-17T02:28:49;64512.03;;;6.75;100.00
48624;BME280;75490;45.802;16.114;2024-03-17T02:31:17;64504.00;;;6.70;100.00
48624;BME280;75490;45.802;16.114;2024-03-17T02:33:44;64514.69;;;6.75;100.00
48624;BME280;75490;45.802;16.114;2024-03-17T02:36:12;64513.09;;;6.76;100.00
48624;BME280;75490;45.802;16.114;2024-03-17T02:38:39;64515.19;;;6.71;100.00
48624;BME280;75490;45.802;16.114;2024-03-17T02:41:25;64500.19;;;6.62;100.00
48624;BME280;75490;45.802;16.114;2024-03-17T02:43:53;64491.66;;;6.59;100.00
48624;BME280;75490;45.802;16.114;2024-03-17T02:46:19;64492.69;;;6.55;100.00
48624;BME280;75490;45.802;16.114;2024-03-17T02:48:52;64498.03;;;6.57;100.00
48624;BME280;75490;45.802;16.114;2024-03-17T02:51:20;64493.25;;;6.55;100.00
48624;BME280;75490;45.802;16.114;2024-03-17T02:53:48;64487.38;;;6.55;100.00
48624;BME280;75490;45.802;16.114;2024-03-17T02:56:16;64501.31;;;6.65;100.00
48624;BME280;75490;45.802;16.114;2024-03-17T02:58:45;64502.88;;;6.64;100.00
48624;BME280;75490;45.802;16.114;2024-03-17T03:01:15;64499.66;;;6.61;100.00
48624;BME280;75490;45.802;16.114;2024-03-17T03:03:43;64487.38;;;6.55;100.00
48624;BME280;75490;45.802;16.114;2024-03-17T03:06:09;64483.03;;;6.46;100.00
48624;BME280;75490;45.802;16.114;2024-03-17T03:08:39;64476.06;;;6.39;100.00
48624;BME280;75490;45.802;16.114;2024-03-17T03:11:09;64470.69;;;6.34;100.00
48624;BME280;75490;45.802;16.114;2024-03-17T03:13:38;64470.13;;;6.31;100.00
48624;BME280;75490;45.802;16.114;2024-03-17T03:16:07;64469.63;;;6.33;100.00
48624;BME280;75490;45.802;16.114;2024-03-17T03:18:35;64463.72;;;6.25;100.00
48624;BME280;75490;45.802;16.114;2024-03-17T03:21:03;64457.28;;;6.19;100.00
48624;BME280;75490;45.802;16.114;2024-03-17T03:23:30;64457.25;;;6.16;100.00
48624;BME280;75490;45.802;16.114;2024-03-17T03:25:59;64446.00;;;6.08;100.00
48624;BME280;75490;45.802;16.114;2024-03-17T03:28:26;64438.53;;;6.03;100.00
48624;BME280;75490;45.802;16.114;2024-03-17T03:30:53;64438.53;;;6.03;100.00
48624;BME280;75490;45.802;16.114;2024-03-17T03:33:20;64440.66;;;6.05;100.00
48624;BME280;75490;45.802;16.114;2024-03-17T03:35:48;64432.13;;;6.02;100.00
48624;BME280;75490;45.802;16.114;2024-03-17T03:38:15;64441.19;;;6.03;100.00
48624;BME280;75490;45.802;16.114;2024-03-17T03:40:42;64439.59;;;6.04;100.00
48624;BME280;75490;45.802;16.114;2024-03-17T03:43:10;64440.66;;;6.05;100.00
48624;BME280;75490;45.802;16.114;2024-03-17T03:45:37;64436.41;;;6.06;100.00
48624;BME280;75490;45.802;16.114;2024-03-17T03:48:04;64438.00;;;6.05;100.00
48624;BME280;75490;45.802;16.114;2024-03-17T03:50:32;64447.13;;;6.12;100.00
48624;BME280;75490;45.802;16.114;2024-03-17T03:52:59;64447.13;;;6.12;100.00
48624;BME280;75490;45.802;16.114;2024-03-17T03:55:26;64445.00;;;6.15;100.00
48624;BME280;75490;45.802;16.114;2024-03-17T03:57:53;64452.47;;;6.17;100.00
48624;BME280;75490;45.802;16.114;2024-03-17T04:00:20;64462.66;;;6.24;100.00
48624;BME280;75490;45.802;16.114;2024-03-17T04:02:52;64472.28;;;6.33;100.00
48624;BME280;75490;45.802;16.114;2024-03-17T04:05:19;64475.50;;;6.36;100.00
48624;BME280;75490;45.802;16.114;2024-03-17T04:07:47;64473.91;;;6.37;100.00
48624;BME280;75490;45.802;16.114;2024-03-17T04:10:15;64475.00;;;6.38;100.00
48624;BME280;75490;45.802;16.114;2024-03-17T04:12:45;64477.16;;;6.40;100.00
48624;BME280;75490;45.802;16.114;2024-03-17T04:15:12;64478.75;;;6.41;100.00
48624;BME280;75490;45.802;16.114;2024-03-17T04:17:39;64480.34;;;6.43;100.00
48624;BME280;75490;45.802;16.114;2024-03-17T04:20:06;64482.50;;;6.45;100.00
48624;BME280;75490;45.802;16.114;2024-03-17T04:22:37;64479.84;;;6.48;100.00
48624;BME280;75490;45.802;16.114;2024-03-17T04:25:04;64494.25;;;6.49;100.00
48624;BME280;75490;45.802;16.114;2024-03-17T04:27:31;64490.00;;;6.52;100.00
48624;BME280;75490;45.802;16.114;2024-03-17T04:29:59;64495.38;;;6.57;100.00
48624;BME280;75490;45.802;16.114;2024-03-17T04:32:26;64493.81;;;6.61;100.00
48624;BME280;75490;45.802;16.114;2024-03-17T04:34:57;64500.78;;;6.67;100.00
48624;BME280;75490;45.802;16.114;2024-03-17T04:37:24;64508.81;;;6.72;100.00
48624;BME280;75490;45.802;16.114;2024-03-17T04:39:51;64509.34;;;6.75;100.00
48624;BME280;75490;45.802;16.114;2024-03-17T04:42:18;64513.09;;;6.76;100.00
48624;BME280;75490;45.802;16.114;2024-03-17T04:44:46;64512.59;;;6.78;100.00
48624;BME280;75490;45.802;16.114;2024-03-17T04:47:12;64510.44;;;6.76;100.00
48624;BME280;75490;45.802;16.114;2024-03-17T04:49:41;64510.94;;;6.72;100.00
48624;BME280;75490;45.802;16.114;2024-03-17T04:52:10;64512.53;;;6.73;100.00
48624;BME280;75490;45.802;16.114;2024-03-17T04:54:37;64515.75;;;6.76;100.00
48624;BME280;75490;45.802;16.114;2024-03-17T04:57:04;64511.44;;;6.67;100.00
48624;BME280;75490;45.802;16.114;2024-03-17T04:59:33;64490.00;;;6.52;100.00
48624;BME280;75490;45.802;16.114;2024-03-17T05:02:01;64470.69;;;6.34;100.00
48624;BME280;75490;45.802;16.114;2024-03-17T05:04:29;64483.56;;;6.46;100.00
48624;BME280;75490;45.802;16.114;2024-03-17T05:06:57;64487.34;;;6.52;100.00
48624;BME280;75490;45.802;16.114;2024-03-17T05:09:24;64493.25;;;6.55;100.00
48624;BME280;75490;45.802;16.114;2024-03-17T05:11:50;64490.00;;;6.52;100.00
48624;BME280;75490;45.802;16.114;2024-03-17T05:14:20;64481.97;;;6.42;100.00
48624;BME280;75490;45.802;16.114;2024-03-17T05:16:50;64481.97;;;6.45;100.00
48624;BME280;75490;45.802;16.114;2024-03-17T05:19:18;64470.75;;;6.39;100.00
48624;BME280;75490;45.802;16.114;2024-03-17T05:21:45;64486.22;;;6.41;100.00
48624;BME280;75490;45.802;16.114;2024-03-17T05:24:12;64476.59;;;6.39;100.00
48624;BME280;75490;45.802;16.114;2024-03-17T05:26:39;64481.97;;;6.42;100.00
48624;BME280;75490;45.802;16.114;2024-03-17T05:29:06;64483.06;;;6.48;100.00
48624;BME280;75490;45.802;16.114;2024-03-17T05:31:33;64473.44;;;6.41;100.00
48624;BME280;75490;45.802;16.114;2024-03-17T05:34:01;64476.63;;;6.42;100.00
48624;BME280;75490;45.802;16.114;2024-03-17T05:36:27;64478.75;;;6.41;100.00
48624;BME280;75490;45.802;16.114;2024-03-17T05:38:59;64477.69;;;6.40;100.00
48624;BME280;75490;45.802;16.114;2024-03-17T05:41:26;64473.91;;;6.37;100.00
48624;BME280;75490;45.802;16.114;2024-03-17T05:43:54;64467.53;;;6.36;100.00
48624;BME280;75490;45.802;16.114;2024-03-17T05:46:25;64479.81;;;6.40;100.00
48624;BME280;75490;45.802;16.114;2024-03-17T05:48:55;64482.50;;;6.45;100.00
48624;BME280;75490;45.802;16.114;2024-03-17T05:51:22;64472.34;;;6.40;100.00
48624;BME280;75490;45.802;16.114;2024-03-17T05:53:49;64482.47;;;6.40;100.00
48624;BME280;75490;45.802;16.114;2024-03-17T05:56:16;64462.13;;;6.26;100.00
48624;BME280;75490;45.802;16.114;2024-03-17T05:58:43;64473.91;;;6.37;100.00
48624;BME280;75490;45.802;16.114;2024-03-17T06:01:10;64483.56;;;6.46;100.00
48624;BME280;75490;45.802;16.114;2024-03-17T06:03:38;64496.47;;;6.63;100.00
48624;BME280;75490;45.802;16.114;2024-03-17T06:06:06;64516.84;;;6.77;100.00
48624;BME280;75490;45.802;16.114;2024-03-17T06:08:39;64537.78;;;7.00;100.00
48624;BME280;75490;45.802;16.114;2024-03-17T06:11:05;64564.59;;;7.23;100.00
48624;BME280;75490;45.802;16.114;2024-03-17T06:13:33;64585.00;;;7.44;100.00
48624;BME280;75490;45.802;16.114;2024-03-17T06:16:02;64585.56;;;7.47;100.00
48624;BME280;75490;45.802;16.114;2024-03-17T06:18:29;64605.41;;;7.64;100.00
48624;BME280;75490;45.802;16.114;2024-03-17T06:20:56;64619.91;;;7.75;100.00
48624;BME280;75490;45.802;16.114;2024-03-17T06:23:25;64623.66;;;7.76;100.00
48624;BME280;75490;45.802;16.114;2024-03-17T06:25:55;64623.66;;;7.76;100.00
48624;BME280;75490;45.802;16.114;2024-03-17T06:28:22;64615.59;;;7.71;100.00
48624;BME280;75490;45.802;16.114;2024-03-17T06:30:59;64609.69;;;7.65;100.00
48624;BME280;75490;45.802;16.114;2024-03-17T06:33:26;64629.03;;;7.86;100.00
48624;BME280;75490;45.802;16.114;2024-03-17T06:35:54;64655.34;;;8.08;100.00
48624;BME280;75490;45.802;16.114;2024-03-17T06:38:22;64673.66;;;8.31;100.00
48624;BME280;75490;45.802;16.114;2024-03-17T06:40:50;64673.66;;;8.31;100.00
48624;BME280;75490;45.802;16.114;2024-03-17T06:43:17;64696.22;;;8.52;100.00
48624;BME280;75490;45.802;16.114;2024-03-17T06:45:54;64734.91;;;8.88;100.00
48624;BME280;75490;45.802;16.114;2024-03-17T06:48:21;64760.69;;;9.08;100.00
48624;BME280;75490;45.802;16.114;2024-03-17T06:50:48;64784.38;;;9.35;100.00
48624;BME280;75490;45.802;16.114;2024-03-17T06:53:15;64815.03;;;9.61;100.00
48624;BME280;75490;45.802;16.114;2024-03-17T06:55:42;64839.22;;;9.84;100.00
48624;BME280;75490;45.802;16.114;2024-03-17T06:58:09;64849.44;;;9.91;100.00
48624;BME280;75490;45.802;16.114;2024-03-17T07:00:36;64867.75;;;10.14;100.00
48624;BME280;75490;45.802;16.114;2024-03-17T07:03:03;64894.16;;;10.39;100.00
48624;BME280;75490;45.802;16.114;2024-03-17T07:05:33;64924.28;;;10.62;100.00
48624;BME280;75490;45.802;16.114;2024-03-17T07:08:00;64954.44;;;10.95;100.00
48624;BME280;75490;45.802;16.114;2024-03-17T07:10:27;64974.91;;;11.15;100.00
48624;BME280;75490;45.802;16.114;2024-03-17T07:12:54;65034.16;;;11.70;100.00
48624;BME280;75490;45.802;16.114;2024-03-17T07:15:20;65032.00;;;11.68;100.00
48624;BME280;75490;45.802;16.114;2024-03-17T07:17:50;65030.91;;;11.62;100.00
48624;BME280;75490;45.802;16.114;2024-03-17T07:20:17;65016.91;;;11.54;100.00
48624;BME280;75490;45.802;16.114;2024-03-17T07:22:48;65082.69;;;12.16;100.00
48624;BME280;75490;45.802;16.114;2024-03-17T07:25:31;65156.56;;;12.86;100.00
48624;BME280;75490;45.802;16.114;2024-03-17T07:28:15;65254.78;;;13.78;100.00
48624;BME280;75490;45.802;16.114;2024-03-17T07:30:47;65298.53;;;14.19;100.00
48624;BME280;75490;45.802;16.114;2024-03-17T07:33:34;65391.97;;;15.09;100.00
48624;BME280;75490;45.802;16.114;2024-03-17T07:36:01;65423.88;;;15.37;100.00
48624;BME280;75490;45.802;16.114;2024-03-17T07:38:29;65406.56;;;15.20;100.00
48624;BME280;75490;45.802;16.114;2024-03-17T07:41:02;65424.94;;;15.38;100.00
48624;BME280;75490;45.802;16.114;2024-03-17T07:43:31;65427.13;;;15.40;100.00
48624;BME280;75490;45.802;16.114;2024-03-17T07:46:09;65400.09;;;15.14;100.00
48624;BME280;75490;45.802;16.114;2024-03-17T07:48:40;65444.97;;;15.56;100.00
48624;BME280;75490;45.802;16.114;2024-03-17T07:51:15;65343.91;;;14.62;100.00
48624;BME280;75490;45.802;16.114;2024-03-17T07:53:46;65385.50;;;15.03;100.00
48624;BME280;75490;45.802;16.114;2024-03-17T07:56:25;65349.84;;;14.67;100.00
48624;BME280;75490;45.802;16.114;2024-03-17T07:59:06;65364.41;;;14.81;100.00
48624;BME280;75490;45.802;16.114;2024-03-17T08:01:56;65328.25;;;14.47;100.00
48624;BME280;75490;45.802;16.114;2024-03-17T08:04:26;65373.59;;;14.94;100.00
48624;BME280;75490;45.802;16.114;2024-03-17T08:07:09;65401.69;;;15.21;100.00
48624;BME280;75490;45.802;16.114;2024-03-17T08:09:39;65551.50;;;16.51;100.00
48624;BME280;75490;45.802;16.114;2024-03-17T08:12:06;65607.78;;;17.09;100.00
48624;BME280;75490;45.802;16.114;2024-03-17T08:14:34;65752.94;;;18.50;100.00
48624;BME280;75490;45.802;16.114;2024-03-17T08:17:06;65748.09;;;18.43;97.39
48624;BME280;75490;45.802;16.114;2024-03-17T08:19:35;65694.47;;;17.90;86.34
48624;BME280;75490;45.802;16.114;2024-03-17T08:22:07;65694.44;;;17.95;87.10
48624;BME280;75490;45.802;16.114;2024-03-17T08:24:34;65671.72;;;17.64;93.66
48624;BME280;75490;45.802;16.114;2024-03-17T08:27:02;65750.78;;;18.48;81.84
48624;BME280;75490;45.802;16.114;2024-03-17T08:29:29;65593.19;;;17.00;93.83
48624;BME280;75490;45.802;16.114;2024-03-17T08:31:56;65631.63;;;17.31;90.78
48624;BME280;75490;45.802;16.114;2024-03-17T08:34:23;65632.72;;;17.32;91.04
48624;BME280;75490;45.802;16.114;2024-03-17T08:36:50;65556.38;;;16.58;93.57
48624;BME280;75490;45.802;16.114;2024-03-17T08:39:19;65559.09;;;16.63;99.29
48624;BME280;75490;45.802;16.114;2024-03-17T08:41:46;65564.50;;;16.68;100.00
48624;BME280;75490;45.802;16.114;2024-03-17T08:44:13;65548.28;;;16.53;100.00
48624;BME280;75490;45.802;16.114;2024-03-17T08:46:40;65544.47;;;16.52;100.00
48624;BME280;75490;45.802;16.114;2024-03-17T08:49:08;65502.28;;;16.13;100.00
48624;BME280;75490;45.802;16.114;2024-03-17T08:51:38;65564.50;;;16.68;100.00
48624;BME280;75490;45.802;16.114;2024-03-17T08:54:08;65621.31;;;17.24;95.21
48624;BME280;75490;45.802;16.114;2024-03-17T08:56:37;65588.88;;;16.94;92.35
48624;BME280;75490;45.802;16.114;2024-03-17T08:59:04;65680.34;;;17.82;88.60
48624;BME280;75490;45.802;16.114;2024-03-17T09:01:31;65666.28;;;17.64;84.51
48624;BME280;75490;45.802;16.114;2024-03-17T09:03:59;65729.13;;;18.23;84.13
48624;BME280;75490;45.802;16.114;2024-03-17T09:06:28;65688.50;;;17.90;81.20
48624;BME280;75490;45.802;16.114;2024-03-17T09:08:56;65667.91;;;17.68;82.02
48624;BME280;75490;45.802;16.114;2024-03-17T09:11:25;65664.13;;;17.67;82.46
48624;BME280;75490;45.802;16.114;2024-03-17T09:13:54;65651.09;;;17.50;86.19
48624;BME280;75490;45.802;16.114;2024-03-17T09:16:22;65633.25;;;17.33;84.61
48624;BME280;75490;45.802;16.114;2024-03-17T09:18:50;65594.81;;;16.94;84.74
48624;BME280;75490;45.802;16.114;2024-03-17T09:21:21;65619.19;;;17.20;86.28
48624;BME280;75490;45.802;16.114;2024-03-17T09:23:48;65572.09;;;16.76;91.77
48624;BME280;75490;45.802;16.114;2024-03-17T09:26:16;65621.34;;;17.22;84.89
48624;BME280;75490;45.802;16.114;2024-03-17T09:28:44;65572.63;;;16.74;87.29
48624;BME280;75490;45.802;16.114;2024-03-17T09:31:11;65560.72;;;16.67;93.29
48624;BME280;75490;45.802;16.114;2024-03-17T09:33:38;65609.97;;;17.16;89.70
48624;BME280;75490;45.802;16.114;2024-03-17T09:36:06;65627.28;;;17.27;83.01
48624;BME280;75490;45.802;16.114;2024-03-17T09:38:35;65635.41;;;17.35;80.47
48624;BME280;75490;45.802;16.114;2024-03-17T09:41:02;65560.19;;;16.64;83.65
48624;BME280;75490;45.802;16.114;2024-03-17T09:43:32;65590.50;;;16.93;83.21
48624;BME280;75490;45.802;16.114;2024-03-17T09:46:02;65582.91;;;16.86;81.99
48624;BME280;75490;45.802;16.114;2024-03-17T09:48:32;65594.81;;;17.02;83.20
48624;BME280;75490;45.802;16.114;2024-03-17T09:51:00;65598.06;;;16.97;82.64
48624;BME280;75490;45.802;16.114;2024-03-17T09:53:30;65613.22;;;17.14;77.56
48624;BME280;75490;45.802;16.114;2024-03-17T09:56:06;65563.41;;;16.70;77.37
48624;BME280;75490;45.802;16.114;2024-03-17T09:58:35;65555.84;;;16.65;74.06
48624;BME280;75490;45.802;16.114;2024-03-17T10:01:02;65605.09;;;17.04;71.67
48624;BME280;75490;45.802;16.114;2024-03-17T10:06:15;65572.09;;;16.76;75.36
48624;BME280;75490;45.802;16.114;2024-03-17T10:08:53;65592.63;;;16.95;73.44
48624;BME280;75490;45.802;16.114;2024-03-17T10:11:41;65568.28;;;16.75;73.49
48624;BME280;75490;45.802;16.114;2024-03-17T10:14:09;65552.03;;;16.59;72.65
48624;BME280;75490;45.802;16.114;2024-03-17T10:16:38;65573.72;;;16.80;71.89
48624;BME280;75490;45.802;16.114;2024-03-17T10:21:38;65555.31;;;16.62;72.66
48624;BME280;75490;45.802;16.114;2024-03-17T10:24:21;65514.72;;;16.22;70.09
48624;BME280;75490;45.802;16.114;2024-03-17T10:26:49;65586.16;;;16.84;73.03
48624;BME280;75490;45.802;16.114;2024-03-17T10:29:27;65526.06;;;16.32;72.23
48624;BME280;75490;45.802;16.114;2024-03-17T10:32:03;65566.66;;;16.76;68.67
48624;BME280;75490;45.802;16.114;2024-03-17T10:34:31;65560.16;;;16.69;68.43
48624;BME280;75490;45.802;16.114;2024-03-17T10:37:08;65554.22;;;16.64;67.61
48624;BME280;75490;45.802;16.114;2024-03-17T10:39:42;65506.59;;;16.17;72.22
48624;BME280;75490;45.802;16.114;2024-03-17T10:42:11;65550.41;;;16.55;70.28
48624;BME280;75490;45.802;16.114;2024-03-17T10:44:40;65625.13;;;17.25;70.03
48624;BME280;75490;45.802;16.114;2024-03-17T10:47:17;65645.16;;;17.49;66.45
48624;BME280;75490;45.802;16.114;2024-03-17T10:49:50;65617.56;;;17.13;63.30
48624;BME280;75490;45.802;16.114;2024-03-17T10:52:18;65626.19;;;17.29;62.38
48624;BME280;75490;45.802;16.114;2024-03-17T10:54:47;65617.56;;;17.18;62.09
48624;BME280;75490;45.802;16.114;2024-03-17T10:57:37;65689.03;;;17.85;62.82
48624;BME280;75490;45.802;16.114;2024-03-17T11:00:12;65635.41;;;17.35;62.14
48624;BME280;75490;45.802;16.114;2024-03-17T11:02:45;65561.28;;;16.65;64.11
48624;BME280;75490;45.802;16.114;2024-03-17T11:07:46;65596.97;;;16.99;62.38
48624;BME280;75490;45.802;16.114;2024-03-17T11:10:27;65620.25;;;17.26;64.78
48624;BME280;75490;45.802;16.114;2024-03-17T11:12:56;65651.66;;;17.53;61.39
48624;BME280;75490;45.802;16.114;2024-03-17T11:17:55;65647.31;;;17.49;59.42
48624;BME280;75490;45.802;16.114;2024-03-17T11:20:25;65660.31;;;17.61;62.56
48624;BME280;75490;45.802;16.114;2024-03-17T11:22:54;65677.13;;;17.74;59.75
48624;BME280;75490;45.802;16.114;2024-03-17T11:27:53;65597.50;;;16.99;59.99
48624;BME280;75490;45.802;16.114;2024-03-17T11:38:55;65678.22;;;17.72;58.05
48624;BME280;75490;45.802;16.114;2024-03-17T11:41:44;65670.09;;;17.67;56.85
48624;BME280;75490;45.802;16.114;2024-03-17T11:47:03;65605.63;;;17.12;60.55
48624;BME280;75490;45.802;16.114;2024-03-17T11:49:32;65615.94;;;17.19;59.35
48624;BME280;75490;45.802;16.114;2024-03-17T11:52:02;65594.81;;;16.97;62.35
48624;BME280;75490;45.802;16.114;2024-03-17T11:54:37;65602.41;;;17.04;61.75
48624;BME280;75490;45.802;16.114;2024-03-17T11:57:12;65560.16;;;16.69;63.49
48624;BME280;75490;45.802;16.114;2024-03-17T11:59:45;65639.75;;;17.39;64.00
48624;BME280;75490;45.802;16.114;2024-03-17T12:02:31;65656.53;;;17.55;61.57
48624;BME280;75490;45.802;16.114;2024-03-17T12:05:00;65685.78;;;17.82;61.46
48624;BME280;75490;45.802;16.114;2024-03-17T12:07:28;65632.72;;;17.32;60.47
48624;BME280;75490;45.802;16.114;2024-03-17T12:09:56;65648.41;;;17.47;64.26
48624;BME280;75490;45.802;16.114;2024-03-17T12:12:25;65696.63;;;17.95;60.48
48624;BME280;75490;45.802;16.114;2024-03-17T12:15:02;65637.03;;;17.36;59.09
48624;BME280;75490;45.802;16.114;2024-03-17T12:17:30;65663.03;;;17.58;59.08
48624;BME280;75490;45.802;16.114;2024-03-17T12:19:57;65666.28;;;17.74;58.99
48624;BME280;75490;45.802;16.114;2024-03-17T12:22:25;65671.72;;;17.64;59.85
48624;BME280;75490;45.802;16.114;2024-03-17T12:25:00;65667.91;;;17.63;60.69
48624;BME280;75490;45.802;16.114;2024-03-17T12:27:28;65694.47;;;17.90;59.10
48624;BME280;75490;45.802;16.114;2024-03-17T12:29:55;65708.53;;;18.08;57.78
48624;BME280;75490;45.802;16.114;2024-03-17T12:32:24;65711.22;;;18.08;59.38
48624;BME280;75490;45.802;16.114;2024-03-17T12:34:54;65720.47;;;18.15;57.96
48624;BME280;75490;45.802;16.114;2024-03-17T12:37:26;65691.19;;;17.92;59.59
48624;BME280;75490;45.802;16.114;2024-03-17T12:40:02;65691.75;;;17.90;58.31
48624;BME280;75490;45.802;16.114;2024-03-17T12:42:30;65714.50;;;18.11;57.83
48624;BME280;75490;45.802;16.114;2024-03-17T12:44:59;65695.53;;;17.96;58.63
48624;BME280;75490;45.802;16.114;2024-03-17T12:47:31;65694.47;;;17.90;58.64
48624;BME280;75490;45.802;16.114;2024-03-17T12:49:59;65697.16;;;17.98;57.05
48624;BME280;75490;45.802;16.114;2024-03-17T12:52:32;65725.88;;;18.20;58.01
48624;BME280;75490;45.802;16.114;2024-03-17T12:55:07;65745.38;;;18.38;58.22
48624;BME280;75490;45.802;16.114;2024-03-17T13:01:00;65724.78;;;18.24;58.04
48624;BME280;75490;45.802;16.114;2024-03-17T13:03:30;65724.22;;;18.21;58.07
48624;BME280;75490;45.802;16.114;2024-03-17T13:05:58;65729.13;;;18.23;58.91
48624;BME280;75490;45.802;16.114;2024-03-17T13:08:26;65711.78;;;18.11;57.78
48624;BME280;75490;45.802;16.114;2024-03-17T13:10:53;65717.19;;;18.17;57.46
48624;BME280;75490;45.802;16.114;2024-03-17T13:13:23;65664.66;;;17.65;58.30
48624;BME280;75490;45.802;16.114;2024-03-17T13:15:50;65622.94;;;17.23;58.81
48624;BME280;75490;45.802;16.114;2024-03-17T13:18:19;65603.47;;;17.05;59.73
48624;BME280;75490;45.802;16.114;2024-03-17T13:20:47;65633.25;;;17.35;60.20
48624;BME280;75490;45.802;16.114;2024-03-17T13:23:19;65660.88;;;17.59;62.21
48624;BME280;75490;45.802;16.114;2024-03-17T13:25:48;65679.84;;;17.77;60.92